createdAt,value
2018-03-18T00:01:15.175Z,100070
2018-03-18T00:03:44.494Z,100077
2018-03-18T00:06:13.676Z,100075
2018-03-18T00:08:42.901Z,100069
2018-03-18T00:11:11.254Z,100058
2018-03-18T00:13:40.364Z,100057
2018-03-18T00:16:08.673Z,100075
2018-03-18T00:18:37.150Z,100073
2018-03-18T00:21:05.469Z,100081
2018-03-18T00:23:33.751Z,100073
2018-03-18T00:26:02.090Z,100085
2018-03-18T00:28:30.460Z,100094
2018-03-18T00:30:58.959Z,100106
2018-03-18T00:33:27.277Z,100090
2018-03-18T00:35:56.399Z,100102
2018-03-18T00:38:24.692Z,100104
2018-03-18T00:40:52.992Z,100091
2018-03-18T00:43:21.311Z,100107
2018-03-18T00:45:50.394Z,100100
2018-03-18T00:48:19.671Z,100104
2018-03-18T00:50:48.061Z,100089
2018-03-18T00:53:16.390Z,100091
2018-03-18T00:55:44.955Z,100089
2018-03-18T00:58:13.300Z,100098
2018-03-18T01:00:41.754Z,100108
2018-03-18T01:03:10.316Z,100092
2018-03-18T01:05:38.659Z,100100
2018-03-18T01:08:07.771Z,100115
2018-03-18T01:10:37.511Z,100101
2018-03-18T01:13:06.038Z,100095
2018-03-18T01:15:35.184Z,100097
2018-03-18T01:18:03.609Z,100101
2018-03-18T01:20:31.900Z,100081
2018-03-18T01:23:01.132Z,100090
2018-03-18T01:25:29.442Z,100083
2018-03-18T01:27:57.770Z,100082
2018-03-18T01:30:26.234Z,100076
2018-03-18T01:32:55.435Z,100086
2018-03-18T01:35:24.541Z,100081
2018-03-18T01:37:54.514Z,100066
2018-03-18T01:40:22.831Z,100077
2018-03-18T01:42:51.146Z,100074
2018-03-18T01:45:19.480Z,100049
2018-03-18T01:47:47.762Z,100070
2018-03-18T01:50:16.045Z,100078
2018-03-18T01:53:01.926Z,100080
2018-03-18T01:55:31.210Z,100068
2018-03-18T01:57:59.540Z,100075
2018-03-18T02:00:27.894Z,100068
2018-03-18T02:02:56.286Z,100069
2018-03-18T02:05:24.615Z,100074
2018-03-18T02:07:53.819Z,100062
2018-03-18T02:10:22.998Z,100074
2018-03-18T02:12:52.179Z,100069
2018-03-18T02:15:20.495Z,100075
2018-03-18T02:17:49.689Z,100064
2018-03-18T02:20:18.830Z,100068
2018-03-18T02:22:47.271Z,100066
2018-03-18T02:25:15.592Z,100063
2018-03-18T02:27:43.903Z,100058
2018-03-18T02:30:12.998Z,100055
2018-03-18T02:32:42.102Z,100060
2018-03-18T02:35:11.257Z,100037
2018-03-18T02:37:39.655Z,100052
2018-03-18T02:40:07.976Z,100056
2018-03-18T02:42:36.409Z,100049
2018-03-18T02:45:04.714Z,100049
2018-03-18T02:47:33.868Z,100048
2018-03-18T02:50:02.362Z,100053
2018-03-18T02:52:31.576Z,100048
2018-03-18T02:55:00.050Z,100052
2018-03-18T02:57:29.317Z,100048
2018-03-18T02:59:57.765Z,100047
2018-03-18T03:02:26.061Z,100044
2018-03-18T03:04:54.567Z,100053
2018-03-18T03:07:22.857Z,100046
2018-03-18T03:09:51.151Z,100053
2018-03-18T03:12:20.250Z,100052
2018-03-18T03:14:49.379Z,100057
2018-03-18T03:17:17.940Z,100049
2018-03-18T03:19:46.246Z,100043
2018-03-18T03:22:15.621Z,100045
2018-03-18T03:24:43.944Z,100042
2018-03-18T03:27:13.583Z,100041
2018-03-18T03:29:41.881Z,100038
2018-03-18T03:32:10.942Z,100047
2018-03-18T03:34:39.245Z,100047
2018-03-18T03:37:08.320Z,100050
2018-03-18T03:39:36.613Z,100047
2018-03-18T03:42:05.710Z,100052
2018-03-18T03:44:34.823Z,100055
2018-03-18T03:47:03.256Z,100056
2018-03-18T03:49:31.676Z,100055
2018-03-18T03:51:59.985Z,100057
2018-03-18T03:54:28.262Z,100053
2018-03-18T03:56:56.667Z,100061
2018-03-18T03:59:26.101Z,100058
2018-03-18T04:01:55.303Z,100047
2018-03-18T04:04:23.631Z,100069
2018-03-18T04:06:51.934Z,100053
2018-03-18T04:09:20.275Z,100061
2018-03-18T04:11:48.560Z,100060
2018-03-18T04:14:16.974Z,100064
2018-03-18T04:16:46.043Z,100067
2018-03-18T04:19:14.336Z,100066
2018-03-18T04:21:43.771Z,100067
2018-03-18T04:24:12.271Z,100073
2018-03-18T04:26:40.768Z,100073
2018-03-18T04:29:09.090Z,100074
2018-03-18T04:31:38.228Z,100081
2018-03-18T04:34:06.653Z,100070
2018-03-18T04:36:34.947Z,100070
2018-03-18T04:39:04.132Z,100072
2018-03-18T04:41:32.438Z,100076
2018-03-18T04:44:00.728Z,100077
2018-03-18T04:46:29.100Z,100080
2018-03-18T04:48:57.422Z,100078
2018-03-18T04:51:25.823Z,100079
2018-03-18T04:53:55.001Z,100086
2018-03-18T04:56:23.251Z,100079
2018-03-18T04:58:51.712Z,100084
2018-03-18T05:01:20.031Z,100079
2018-03-18T05:03:49.306Z,100081
2018-03-18T05:06:17.586Z,100081
2018-03-18T05:08:45.967Z,100093
2018-03-18T05:11:14.376Z,100094
2018-03-18T05:13:44.253Z,100087
2018-03-18T05:16:12.523Z,100086
2018-03-18T05:18:40.842Z,100098
2018-03-18T05:21:09.341Z,100096
2018-03-18T05:23:38.424Z,100098
2018-03-18T05:26:07.570Z,100096
2018-03-18T05:28:35.885Z,100100
2018-03-18T05:31:04.181Z,100106
2018-03-18T05:33:33.450Z,100088
2018-03-18T05:36:01.750Z,100088
2018-03-18T05:38:30.807Z,100105
2018-03-18T05:40:59.182Z,100096
2018-03-18T05:43:27.455Z,100097
2018-03-18T05:45:55.762Z,100095
2018-03-18T05:48:24.822Z,100101
2018-03-18T05:50:53.101Z,100099
2018-03-18T05:53:21.469Z,100100
2018-03-18T05:55:49.861Z,100109
2018-03-18T05:58:18.177Z,100106
2018-03-18T06:00:47.230Z,100113
2018-03-18T06:03:15.548Z,100118
2018-03-18T06:05:44.682Z,100118
2018-03-18T06:08:12.982Z,100119
2018-03-18T06:10:41.266Z,100130
2018-03-18T06:13:09.596Z,100136
2018-03-18T06:15:38.093Z,100145
2018-03-18T06:18:06.411Z,100132
2018-03-18T06:20:34.857Z,100135
2018-03-18T06:23:03.187Z,100139
2018-03-18T06:25:31.508Z,100136
2018-03-18T06:27:59.823Z,100143
2018-03-18T06:30:28.276Z,100141
2018-03-18T06:32:56.853Z,100152
2018-03-18T06:35:25.191Z,100148
2018-03-18T06:37:54.311Z,100147
2018-03-18T06:40:22.702Z,100137
2018-03-18T06:42:51.018Z,100158
2018-03-18T06:45:19.323Z,100158
2018-03-18T06:47:48.493Z,100161
2018-03-18T06:50:17.585Z,100174
2018-03-18T06:52:46.001Z,100155
2018-03-18T06:55:14.344Z,100170
2018-03-18T06:57:44.111Z,100166
2018-03-18T07:00:12.410Z,100169
2018-03-18T07:02:40.678Z,100174
2018-03-18T07:05:08.997Z,100163
2018-03-18T07:07:37.414Z,100173
2018-03-18T07:10:05.716Z,100171
2018-03-18T07:12:34.026Z,100189
2018-03-18T07:15:02.426Z,100180
2018-03-18T07:17:30.813Z,100179
2018-03-18T07:19:59.152Z,100179
2018-03-18T07:22:27.710Z,100187
2018-03-18T07:24:56.016Z,100192
2018-03-18T07:27:24.357Z,100186
2018-03-18T07:29:52.748Z,100185
2018-03-18T07:32:21.249Z,100181
2018-03-18T07:34:50.343Z,100196
2018-03-18T07:37:18.817Z,100200
2018-03-18T07:39:47.308Z,100202
2018-03-18T07:42:15.658Z,100206
2018-03-18T07:44:44.207Z,100205
2018-03-18T07:47:12.574Z,100210
2018-03-18T07:49:41.628Z,100194
2018-03-18T07:52:09.984Z,100199
2018-03-18T07:54:39.452Z,100211
2018-03-18T07:57:07.866Z,100222
2018-03-18T07:59:36.262Z,100222
2018-03-18T08:02:04.603Z,100215
2018-03-18T08:04:33.017Z,100213
2018-03-18T08:07:01.684Z,100212
2018-03-18T08:09:29.978Z,100218
2018-03-18T08:11:58.551Z,100219
2018-03-18T08:14:26.826Z,100221
2018-03-18T08:16:55.154Z,100221
2018-03-18T08:19:24.389Z,100201
2018-03-18T08:21:53.923Z,100211
2018-03-18T08:24:22.245Z,100224
2018-03-18T08:26:52.634Z,100219
2018-03-18T08:29:20.959Z,100224
2018-03-18T08:31:49.428Z,100234
2018-03-18T08:34:17.789Z,100223
2018-03-18T08:36:46.865Z,100217
2018-03-18T08:39:15.223Z,100227
2018-03-18T08:41:43.563Z,100229
2018-03-18T08:44:12.059Z,100217
2018-03-18T08:46:40.698Z,100222
2018-03-18T08:49:10.023Z,100222
2018-03-18T08:51:38.303Z,100219
2018-03-18T08:54:07.437Z,100209
2018-03-18T08:56:35.729Z,100220
2018-03-18T08:59:04.078Z,100226
2018-03-18T09:01:32.458Z,100228
2018-03-18T09:04:00.891Z,100221
2018-03-18T09:06:29.203Z,100220
2018-03-18T09:08:57.486Z,100234
2018-03-18T09:11:26.118Z,100233
2018-03-18T09:13:54.544Z,100233
2018-03-18T09:16:22.906Z,100237
2018-03-18T09:18:53.175Z,100234
2018-03-18T09:21:21.503Z,100235
2018-03-18T09:23:50.577Z,100227
2018-03-18T09:26:19.789Z,100237
2018-03-18T09:28:48.896Z,100228
2018-03-18T09:31:17.512Z,100232
2018-03-18T09:33:46.049Z,100239
2018-03-18T09:36:15.345Z,100231
2018-03-18T09:38:44.494Z,100235
2018-03-18T09:41:12.790Z,100234
2018-03-18T09:43:41.173Z,100237
2018-03-18T09:46:09.927Z,100226
2018-03-18T09:48:39.163Z,100240
2018-03-18T09:51:08.587Z,100241
2018-03-18T09:56:04.598Z,100247
2018-03-18T09:58:33.110Z,100247
2018-03-18T10:01:02.248Z,100258
2018-03-18T10:03:30.607Z,100251
2018-03-18T10:05:59.154Z,100247
2018-03-18T10:08:27.504Z,100257
2018-03-18T10:10:55.920Z,100257
2018-03-18T10:13:24.544Z,100268
2018-03-18T10:15:53.193Z,100266
2018-03-18T10:18:22.279Z,100261
2018-03-18T10:20:50.589Z,100255
2018-03-18T10:23:18.991Z,100260
2018-03-18T10:25:47.367Z,100258
2018-03-18T10:28:15.756Z,100261
2018-03-18T10:30:44.111Z,100260
2018-03-18T10:33:12.689Z,100260
2018-03-18T10:35:41.300Z,100260
2018-03-18T10:38:09.682Z,100266
2018-03-18T10:40:38.247Z,100261
2018-03-18T10:43:06.580Z,100251
2018-03-18T10:45:34.950Z,100262
2018-03-18T10:48:05.957Z,100259
2018-03-18T10:50:35.398Z,100271
2018-03-18T10:53:03.756Z,100269
2018-03-18T10:55:32.164Z,100268
2018-03-18T10:58:01.381Z,100263
2018-03-18T11:00:35.190Z,100268
2018-03-18T11:03:03.540Z,100263
2018-03-18T11:05:32.622Z,100247
2018-03-18T11:08:01.044Z,100249
2018-03-18T11:10:29.455Z,100248
2018-03-18T11:12:57.942Z,100250
2018-03-18T11:15:26.279Z,100248
2018-03-18T11:17:54.812Z,100244
2018-03-18T11:20:23.386Z,100246
2018-03-18T11:22:51.738Z,100254
2018-03-18T11:25:20.228Z,100247
2018-03-18T11:27:48.663Z,100237
2018-03-18T11:30:17.173Z,100249
2018-03-18T11:32:45.482Z,100232
2018-03-18T11:35:13.974Z,100240
2018-03-18T11:37:42.336Z,100230
2018-03-18T11:40:10.886Z,100233
2018-03-18T11:42:39.336Z,100234
2018-03-18T11:45:07.779Z,100226
2018-03-18T11:47:36.330Z,100237
2018-03-18T11:50:05.018Z,100228
2018-03-18T11:52:33.513Z,100220
2018-03-18T11:55:01.976Z,100218
2018-03-18T11:57:30.397Z,100221
2018-03-18T11:59:58.842Z,100221
2018-03-18T12:02:27.212Z,100214
2018-03-18T12:04:55.603Z,100223
2018-03-18T12:07:23.992Z,100228
2018-03-18T12:09:52.464Z,100225
2018-03-18T12:12:21.141Z,100218
2018-03-18T12:14:49.530Z,100212
2018-03-18T12:17:18.197Z,100221
2018-03-18T12:19:46.683Z,100215
2018-03-18T12:22:15.038Z,100221
2018-03-18T12:24:44.259Z,100226
2018-03-18T12:27:12.601Z,100212
2018-03-18T12:29:41.022Z,100207
2018-03-18T12:32:09.427Z,100215
2018-03-18T12:34:37.794Z,100203
2018-03-18T12:37:06.091Z,100196
2018-03-18T12:39:52.294Z,100207
2018-03-18T12:42:38.428Z,100207
2018-03-18T12:45:07.559Z,100199
2018-03-18T12:47:35.888Z,100201
2018-03-18T12:50:05.020Z,100189
2018-03-18T12:52:33.476Z,100190
2018-03-18T12:55:02.642Z,100193
2018-03-18T12:57:31.344Z,100189
2018-03-18T12:59:59.681Z,100179
2018-03-18T13:02:28.156Z,100187
2018-03-18T13:04:56.498Z,100186
2018-03-18T13:07:25.580Z,100182
2018-03-18T13:09:54.663Z,100182
2018-03-18T13:12:23.041Z,100184
2018-03-18T13:14:52.230Z,100192
2018-03-18T13:17:20.630Z,100177
2018-03-18T13:19:49.983Z,100190
2018-03-18T13:22:18.378Z,100172
2018-03-18T13:24:46.829Z,100161
2018-03-18T13:27:15.322Z,100178
2018-03-18T13:29:43.749Z,100180
2018-03-18T13:32:12.819Z,100182
2018-03-18T13:34:41.300Z,100184
2018-03-18T13:37:09.644Z,100180
2018-03-18T13:39:37.943Z,100181
2018-03-18T13:42:06.309Z,100170
2018-03-18T13:44:34.699Z,100173
2018-03-18T13:47:05.252Z,100173
2018-03-18T13:49:33.636Z,100179
2018-03-18T13:52:02.179Z,100189
2018-03-18T13:54:30.588Z,100190
2018-03-18T13:56:59.110Z,100186
2018-03-18T13:59:28.276Z,100189
2018-03-18T14:01:56.763Z,100184
2018-03-18T14:04:25.844Z,100188
2018-03-18T14:06:54.292Z,100190
2018-03-18T14:09:22.770Z,100188
2018-03-18T14:11:51.160Z,100183
2018-03-18T14:14:19.882Z,100192
2018-03-18T14:16:48.209Z,100192
2018-03-18T14:19:16.691Z,100203
2018-03-18T14:21:45.657Z,100199
2018-03-18T14:24:14.767Z,100196
2018-03-18T14:26:43.354Z,100204
2018-03-18T14:29:11.731Z,100195
2018-03-18T14:31:40.288Z,100197
2018-03-18T14:34:08.710Z,100197
2018-03-18T14:36:37.054Z,100199
2018-03-18T14:39:06.511Z,100193
2018-03-18T14:41:34.903Z,100205
2018-03-18T14:44:03.318Z,100189
2018-03-18T14:46:31.880Z,100196
2018-03-18T14:49:00.281Z,100202
2018-03-18T14:51:28.675Z,100199
2018-03-18T14:53:57.013Z,100203
2018-03-18T14:56:25.470Z,100205
2018-03-18T14:58:53.864Z,100205
2018-03-18T15:01:22.313Z,100203
2018-03-18T15:03:50.665Z,100199
2018-03-18T15:06:19.965Z,100202
2018-03-18T15:08:48.490Z,100200
2018-03-18T15:11:17.061Z,100206
2018-03-18T15:13:45.573Z,100203
2018-03-18T15:16:13.900Z,100205
2018-03-18T15:18:42.465Z,100206
2018-03-18T15:21:11.064Z,100198
2018-03-18T15:23:39.402Z,100199
2018-03-18T15:26:08.653Z,100199
2018-03-18T15:28:36.981Z,100208
2018-03-18T15:31:05.346Z,100204
2018-03-18T15:33:33.747Z,100206
2018-03-18T15:36:03.087Z,100200
2018-03-18T15:38:31.441Z,100208
2018-03-18T15:40:59.967Z,100212
2018-03-18T15:43:28.516Z,100211
2018-03-18T15:45:56.933Z,100204
2018-03-18T15:48:25.458Z,100206
2018-03-18T15:50:53.912Z,100214
2018-03-18T15:53:23.275Z,100206
2018-03-18T15:55:51.643Z,100207
2018-03-18T15:58:20.024Z,100208
2018-03-18T16:00:48.398Z,100210
2018-03-18T16:03:17.774Z,100196
2018-03-18T16:05:47.106Z,100210
2018-03-18T16:08:16.047Z,100216
2018-03-18T16:10:44.467Z,100215
2018-03-18T16:13:12.969Z,100213
2018-03-18T16:15:41.420Z,100219
2018-03-18T16:18:09.823Z,100220
2018-03-18T16:20:38.176Z,100225
2018-03-18T16:23:06.623Z,100223
2018-03-18T16:25:35.367Z,100231
2018-03-18T16:28:03.861Z,100232
2018-03-18T16:30:50.280Z,100243
2018-03-18T16:33:19.866Z,100249
2018-03-18T16:35:48.440Z,100255
2018-03-18T16:38:17.101Z,100259
2018-03-18T16:40:45.561Z,100268
2018-03-18T16:43:14.942Z,100265
2018-03-18T16:45:43.510Z,100272
2018-03-18T16:48:11.974Z,100273
2018-03-18T16:50:40.665Z,100273
2018-03-18T16:53:09.087Z,100286
2018-03-18T16:55:38.632Z,100280
2018-03-18T16:58:07.019Z,100279
2018-03-18T17:00:35.695Z,100273
2018-03-18T17:03:04.134Z,100287
2018-03-18T17:05:33.422Z,100288
2018-03-18T17:08:01.930Z,100298
2018-03-18T17:10:30.619Z,100299
2018-03-18T17:13:00.262Z,100306
2018-03-18T17:15:28.748Z,100313
2018-03-18T17:17:57.840Z,100309
2018-03-18T17:20:26.444Z,100317
2018-03-18T17:22:54.886Z,100321
2018-03-18T17:25:23.382Z,100323
2018-03-18T17:27:52.153Z,100326
2018-03-18T17:30:20.589Z,100334
2018-03-18T17:32:49.020Z,100340
2018-03-18T17:35:17.592Z,100348
2018-03-18T17:37:46.399Z,100349
2018-03-18T17:40:14.825Z,100359
2018-03-18T17:42:43.463Z,100359
2018-03-18T17:45:29.554Z,100363
2018-03-18T17:48:15.996Z,100369
2018-03-18T17:51:02.657Z,100364
2018-03-18T17:53:48.981Z,100373
2018-03-18T17:56:35.088Z,100384
2018-03-18T17:59:04.353Z,100389
2018-03-18T18:01:32.951Z,100390
2018-03-18T18:04:01.990Z,100402
2018-03-18T18:06:31.679Z,100399
2018-03-18T18:09:00.540Z,100406
2018-03-18T18:11:29.553Z,100402
2018-03-18T18:13:58.350Z,100407
2018-03-18T18:16:27.712Z,100386
2018-03-18T18:18:56.345Z,100411
2018-03-18T18:21:25.609Z,100411
2018-03-18T18:23:54.603Z,100425
2018-03-18T18:26:25.560Z,100421
2018-03-18T18:28:54.308Z,100425
2018-03-18T18:31:22.692Z,100432
2018-03-18T18:33:51.202Z,100428
2018-03-18T18:36:19.602Z,100420
2018-03-18T18:38:48.771Z,100418
2018-03-18T18:41:17.423Z,100427
2018-03-18T18:43:45.781Z,100408
2018-03-18T18:46:14.215Z,100439
2018-03-18T18:48:43.564Z,100446
2018-03-18T18:51:11.980Z,100446
2018-03-18T18:53:40.637Z,100453
2018-03-18T18:56:09.299Z,100454
2018-03-18T18:58:37.926Z,100452
2018-03-18T19:01:06.772Z,100451
2018-03-18T19:03:35.295Z,100457
2018-03-18T19:06:04.194Z,100461
2018-03-18T19:08:32.802Z,100457
2018-03-18T19:11:01.472Z,100456
2018-03-18T19:13:30.109Z,100459
2018-03-18T19:15:58.732Z,100461
2018-03-18T19:18:27.284Z,100461
2018-03-18T19:20:55.855Z,100460
2018-03-18T19:23:24.403Z,100465
2018-03-18T19:25:52.994Z,100470
2018-03-18T19:28:22.112Z,100469
2018-03-18T19:30:50.637Z,100461
2018-03-18T19:33:19.134Z,100466
2018-03-18T19:35:47.525Z,100463
2018-03-18T19:38:16.787Z,100461
2018-03-18T19:40:45.230Z,100454
2018-03-18T19:43:14.606Z,100458
2018-03-18T19:45:43.098Z,100454
2018-03-18T19:48:12.348Z,100456
2018-03-18T19:50:40.829Z,100451
2018-03-18T19:53:09.413Z,100450
2018-03-18T19:55:38.004Z,100451
2018-03-18T19:58:06.565Z,100450
2018-03-18T20:00:35.181Z,100453
2018-03-18T20:03:03.750Z,100464
2018-03-18T20:05:32.265Z,100459
2018-03-18T20:08:00.714Z,100458
2018-03-18T20:10:29.436Z,100461
2018-03-18T20:12:58.599Z,100457
2018-03-18T20:15:27.176Z,100457
2018-03-18T20:17:55.774Z,100460
2018-03-18T20:20:24.467Z,100460
2018-03-18T20:22:52.831Z,100461
2018-03-18T20:25:21.136Z,100471
2018-03-18T20:27:49.655Z,100466
2018-03-18T20:30:18.164Z,100463
2018-03-18T20:32:46.670Z,100462
2018-03-18T20:35:15.195Z,100459
2018-03-18T20:37:43.591Z,100458
2018-03-18T20:40:11.982Z,100463
2018-03-18T20:42:40.438Z,100470
2018-03-18T20:45:09.713Z,100464
2018-03-18T20:47:39.032Z,100471
2018-03-18T20:50:07.386Z,100464
2018-03-18T20:52:35.705Z,100469
2018-03-18T20:55:04.190Z,100475
2018-03-18T20:57:32.515Z,100472
2018-03-18T21:00:01.137Z,100479
2018-03-18T21:02:29.482Z,100476
2018-03-18T21:04:57.934Z,100481
2018-03-18T21:07:27.382Z,100459
2018-03-18T21:09:56.516Z,100479
2018-03-18T21:12:24.888Z,100477
2018-03-18T21:14:53.246Z,100479
2018-03-18T21:17:21.687Z,100472
2018-03-18T21:19:50.026Z,100472
2018-03-18T21:22:18.515Z,100472
2018-03-18T21:24:46.869Z,100476
2018-03-18T21:27:15.186Z,100481
2018-03-18T21:29:43.502Z,100473
2018-03-18T21:32:11.920Z,100474
2018-03-18T21:34:40.406Z,100481
2018-03-18T21:37:08.892Z,100483
2018-03-18T21:39:37.220Z,100482
2018-03-18T21:42:06.340Z,100483
2018-03-18T21:44:34.711Z,100483
2018-03-18T21:47:03.161Z,100490
2018-03-18T21:49:32.210Z,100488
2018-03-18T21:52:00.601Z,100490
2018-03-18T21:54:29.027Z,100484
2018-03-18T21:56:58.106Z,100485
2018-03-18T21:59:27.258Z,100479
2018-03-18T22:01:55.603Z,100484
2018-03-18T22:04:24.679Z,100481
2018-03-18T22:06:54.948Z,100484
2018-03-18T22:09:23.435Z,100477
2018-03-18T22:11:51.809Z,100482
2018-03-18T22:14:20.156Z,100486
2018-03-18T22:16:49.428Z,100483
2018-03-18T22:19:17.703Z,100485
2018-03-18T22:21:46.061Z,100480
2018-03-18T22:24:14.415Z,100481
2018-03-18T22:26:42.737Z,100483
2018-03-18T22:29:11.025Z,100488
2018-03-18T22:31:40.192Z,100489
2018-03-18T22:34:09.610Z,100483
2018-03-18T22:36:37.942Z,100485
2018-03-18T22:39:06.259Z,100488
2018-03-18T22:41:34.605Z,100487
2018-03-18T22:44:03.008Z,100484
2018-03-18T22:46:32.294Z,100496
2018-03-18T22:49:00.810Z,100489
2018-03-18T22:51:29.131Z,100491
2018-03-18T22:53:57.547Z,100487
2018-03-18T22:56:25.908Z,100489
2018-03-18T22:58:54.375Z,100490
2018-03-18T23:01:22.838Z,100475
2018-03-18T23:03:53.033Z,100479
2018-03-18T23:06:22.244Z,100485
2018-03-18T23:08:51.358Z,100484
2018-03-18T23:11:19.707Z,100485
2018-03-18T23:13:48.838Z,100490
2018-03-18T23:16:17.410Z,100483
2018-03-18T23:18:46.094Z,100480
2018-03-18T23:21:14.589Z,100480
2018-03-18T23:23:42.917Z,100490
2018-03-18T23:26:11.262Z,100486
2018-03-18T23:28:39.646Z,100483
2018-03-18T23:31:08.038Z,100487
2018-03-18T23:33:36.439Z,100482
2018-03-18T23:36:05.632Z,100486
2018-03-18T23:38:34.181Z,100476
2018-03-18T23:41:02.479Z,100482
2018-03-18T23:43:30.741Z,100486
2018-03-18T23:45:59.029Z,100477
2018-03-18T23:48:27.350Z,100478
2018-03-18T23:50:55.675Z,100479
2018-03-18T23:53:24.122Z,100482
2018-03-18T23:55:52.392Z,100482
2018-03-18T23:58:20.711Z,100477
